createdAt,value
2017-09-16T00:02:01.756Z,26.43
2017-09-16T00:04:28.069Z,29.40
2017-09-16T00:06:55.376Z,21.07
2017-09-16T00:09:22.447Z,21.43
2017-09-16T00:11:49.393Z,17.60
2017-09-16T00:14:15.659Z,27.23
2017-09-16T00:16:41.907Z,18.80
2017-09-16T00:19:08.326Z,19.63
2017-09-16T00:21:34.678Z,20.90
2017-09-16T00:24:01.021Z,19.40
2017-09-16T00:26:27.507Z,23.57
2017-09-16T00:28:53.809Z,18.40
2017-09-16T00:31:20.178Z,29.67
2017-09-16T00:33:47.426Z,17.27
2017-09-16T00:36:13.814Z,21.77
2017-09-16T00:38:40.953Z,14.40
2017-09-16T00:41:07.278Z,22.50
2017-09-16T00:43:33.875Z,14.73
2017-09-16T00:46:00.232Z,19.13
2017-09-16T00:48:26.641Z,24.17
2017-09-16T00:50:53.699Z,19.30
2017-09-16T00:53:20.072Z,21.30
2017-09-16T00:55:46.469Z,20.47
2017-09-16T00:58:12.768Z,17.67
2017-09-16T01:00:39.158Z,19.73
2017-09-16T01:03:05.444Z,17.97
2017-09-16T01:05:31.814Z,19.80
2017-09-16T01:07:58.560Z,24.97
2017-09-16T01:10:24.900Z,19.40
2017-09-16T01:12:52.208Z,22.80
2017-09-16T01:15:19.368Z,20.03
2017-09-16T01:17:46.525Z,22.10
2017-09-16T01:20:12.839Z,24.40
2017-09-16T01:22:39.189Z,26.97
2017-09-16T01:25:05.511Z,18.93
2017-09-16T01:27:32.027Z,14.60
2017-09-16T01:29:58.325Z,18.80
2017-09-16T01:32:24.699Z,22.87
2017-09-16T01:34:51.158Z,22.77
2017-09-16T01:37:17.601Z,18.50
2017-09-16T01:39:43.937Z,22.83
2017-09-16T01:42:10.301Z,20.97
2017-09-16T01:44:36.720Z,21.50
2017-09-16T01:47:03.927Z,21.27
2017-09-16T01:49:30.274Z,24.10
2017-09-16T01:51:56.563Z,23.63
2017-09-16T01:54:22.943Z,23.23
2017-09-16T01:56:49.254Z,24.67
2017-09-16T01:59:15.674Z,26.63
2017-09-16T02:01:42.062Z,24.73
2017-09-16T02:04:08.397Z,24.00
2017-09-16T02:06:34.815Z,18.00
2017-09-16T02:09:01.110Z,29.13
2017-09-16T02:11:28.439Z,24.53
2017-09-16T02:13:54.745Z,20.67
2017-09-16T02:16:21.175Z,20.67
2017-09-16T02:18:48.476Z,26.13
2017-09-16T02:21:14.816Z,27.40
2017-09-16T02:23:41.225Z,22.37
2017-09-16T02:26:12.943Z,18.57
2017-09-16T02:28:41.254Z,18.70
2017-09-16T02:31:07.630Z,22.27
2017-09-16T02:33:33.979Z,25.40
2017-09-16T02:36:00.292Z,29.30
2017-09-16T02:38:26.644Z,18.57
2017-09-16T02:40:52.988Z,27.60
2017-09-16T02:43:20.129Z,16.90
2017-09-16T02:45:47.329Z,26.13
2017-09-16T02:48:13.654Z,21.90
2017-09-16T02:50:40.109Z,20.80
2017-09-16T02:53:06.456Z,37.67
2017-09-16T02:55:32.876Z,28.40
2017-09-16T02:57:59.451Z,27.77
2017-09-16T03:00:27.476Z,29.33
2017-09-16T03:02:53.903Z,23.33
2017-09-16T03:05:21.470Z,17.73
2017-09-16T03:07:47.859Z,25.80
2017-09-16T03:10:17.152Z,36.43
2017-09-16T03:12:43.511Z,23.87
2017-09-16T03:15:09.878Z,18.10
2017-09-16T03:17:37.792Z,27.90
2017-09-16T03:20:04.855Z,24.03
2017-09-16T03:25:25.737Z,23.10
2017-09-16T03:27:52.188Z,20.93
2017-09-16T03:30:18.615Z,26.57
2017-09-16T03:32:44.996Z,22.53
2017-09-16T03:35:11.459Z,37.60
2017-09-16T03:37:37.800Z,51.10
2017-09-16T03:40:04.259Z,26.60
2017-09-16T03:42:31.399Z,25.00
2017-09-16T03:44:57.731Z,29.80
2017-09-16T03:47:24.108Z,24.17
2017-09-16T03:49:50.479Z,19.20
2017-09-16T03:52:16.873Z,16.63
2017-09-16T03:54:43.282Z,22.23
2017-09-16T03:57:09.687Z,21.53
2017-09-16T03:59:36.002Z,22.03
2017-09-16T04:02:15.407Z,23.30
2017-09-16T04:04:41.859Z,25.70
2017-09-16T04:07:08.196Z,21.20
2017-09-16T04:09:34.544Z,25.90
2017-09-16T04:12:00.850Z,17.20
2017-09-16T04:14:27.336Z,27.27
2017-09-16T04:16:54.756Z,37.60
2017-09-16T04:19:21.135Z,40.23
2017-09-16T04:21:47.534Z,47.07
2017-09-16T04:24:13.807Z,47.07
2017-09-16T04:26:40.947Z,52.80
2017-09-16T04:29:07.323Z,38.63
2017-09-16T04:31:33.641Z,32.10
2017-09-16T04:33:59.980Z,40.40
2017-09-16T04:36:29.624Z,43.40
2017-09-16T04:38:56.614Z,39.03
2017-09-16T04:41:29.428Z,26.07
2017-09-16T04:43:55.846Z,37.77
2017-09-16T04:46:22.315Z,34.13
2017-09-16T04:48:48.733Z,33.40
2017-09-16T04:51:15.097Z,47.33
2017-09-16T04:53:41.434Z,49.50
2017-09-16T04:56:07.854Z,61.97
2017-09-16T04:58:34.169Z,77.30
2017-09-16T05:01:00.519Z,145.00
2017-09-16T05:03:26.947Z,117.93
2017-09-16T05:05:53.281Z,116.40
2017-09-16T05:08:19.632Z,158.20
2017-09-16T05:10:45.988Z,97.13
2017-09-16T05:13:12.358Z,111.97
2017-09-16T05:15:38.874Z,148.10
2017-09-16T05:18:05.227Z,92.23
2017-09-16T05:20:31.605Z,66.97
2017-09-16T05:22:58.720Z,48.60
2017-09-16T05:25:25.090Z,56.43
2017-09-16T05:27:51.554Z,53.33
2017-09-16T05:30:17.880Z,47.57
2017-09-16T05:32:44.242Z,60.87
2017-09-16T05:35:10.679Z,54.93
2017-09-16T05:37:37.088Z,42.53
2017-09-16T05:40:04.426Z,57.10
2017-09-16T05:42:30.819Z,64.43
2017-09-16T05:44:57.276Z,68.73
2017-09-16T05:47:24.398Z,69.77
2017-09-16T05:49:50.733Z,78.43
2017-09-16T05:52:17.123Z,72.50
2017-09-16T05:54:43.468Z,97.13
2017-09-16T05:57:10.249Z,81.13
2017-09-16T05:59:36.728Z,65.33
2017-09-16T06:02:03.032Z,93.13
2017-09-16T06:04:30.158Z,93.80
2017-09-16T06:06:56.615Z,118.93
2017-09-16T06:09:22.907Z,81.10
2017-09-16T06:11:49.258Z,114.60
2017-09-16T06:14:16.096Z,115.90
2017-09-16T06:16:42.460Z,76.17
2017-09-16T06:19:08.867Z,126.33
2017-09-16T06:21:35.247Z,103.40
2017-09-16T06:24:02.128Z,102.27
2017-09-16T06:26:28.864Z,118.90
2017-09-16T06:28:55.276Z,93.10
2017-09-16T06:31:21.762Z,410.53
2017-09-16T06:33:48.226Z,155.37
2017-09-16T06:36:14.680Z,136.10
2017-09-16T06:38:40.979Z,169.87
2017-09-16T06:41:07.318Z,282.37
2017-09-16T06:43:33.637Z,101.13
2017-09-16T06:46:00.124Z,298.87
2017-09-16T06:48:26.575Z,116.67
2017-09-16T06:50:53.056Z,174.03
2017-09-16T06:53:19.476Z,112.60
2017-09-16T06:55:46.002Z,43.57
2017-09-16T06:58:12.427Z,33.67
2017-09-16T07:00:38.714Z,38.60
2017-09-16T07:03:05.259Z,29.83
2017-09-16T07:05:31.672Z,14.60
2017-09-16T07:07:59.025Z,23.40
2017-09-16T07:10:25.354Z,19.70
2017-09-16T07:12:51.723Z,5.63
2017-09-16T07:15:18.174Z,9.80
2017-09-16T07:17:44.505Z,5.53
2017-09-16T07:20:10.843Z,6.50
2017-09-16T07:22:37.117Z,4.60
2017-09-16T07:25:03.418Z,3.13
2017-09-16T07:27:29.802Z,2.83
2017-09-16T07:29:56.342Z,3.30
2017-09-16T07:32:23.015Z,3.53
2017-09-16T07:34:50.176Z,3.80
2017-09-16T07:37:17.339Z,2.50
2017-09-16T07:39:43.680Z,2.73
2017-09-16T07:42:10.069Z,3.30
2017-09-16T07:44:37.333Z,1.77
2017-09-16T07:47:03.735Z,1.70
2017-09-16T07:49:30.083Z,1.83
2017-09-16T07:51:56.517Z,5.67
2017-09-16T07:54:22.938Z,4.80
2017-09-16T07:56:49.271Z,3.03
2017-09-16T07:59:15.728Z,1.40
2017-09-16T08:01:42.803Z,1.07
2017-09-16T08:04:09.283Z,2.30
2017-09-16T08:06:35.788Z,4.63
2017-09-16T08:09:02.109Z,1.47
2017-09-16T08:11:29.149Z,2.47
2017-09-16T08:13:56.463Z,1.00
2017-09-16T08:16:22.832Z,1.10
2017-09-16T08:18:50.250Z,3.57
2017-09-16T08:21:16.525Z,2.97
2017-09-16T08:23:43.635Z,1.37
2017-09-16T08:26:09.931Z,2.33
2017-09-16T08:28:36.220Z,0.70
2017-09-16T08:31:02.677Z,0.87
2017-09-16T08:33:30.156Z,2.83
2017-09-16T08:35:56.808Z,0.50
2017-09-16T08:38:23.125Z,0.93
2017-09-16T08:40:49.789Z,1.17
2017-09-16T08:43:16.137Z,0.80
2017-09-16T08:45:42.546Z,1.07
2017-09-16T08:48:08.858Z,0.53
2017-09-16T08:50:35.177Z,0.50
2017-09-16T08:53:01.723Z,2.27
2017-09-16T08:55:28.033Z,0.60
2017-09-16T08:57:55.076Z,0.63
2017-09-16T09:00:21.565Z,0.80
2017-09-16T09:02:47.880Z,0.50
2017-09-16T09:05:14.942Z,0.60
2017-09-16T09:07:41.354Z,1.50
2017-09-16T09:10:07.614Z,0.80
2017-09-16T09:12:33.968Z,0.60
2017-09-16T09:15:00.246Z,0.50
2017-09-16T09:17:26.454Z,1.00
2017-09-16T09:19:52.778Z,0.50
2017-09-16T09:22:19.053Z,0.60
2017-09-16T09:24:45.410Z,0.60
2017-09-16T09:27:11.787Z,0.47
2017-09-16T09:29:38.117Z,1.80
2017-09-16T09:32:04.537Z,0.50
2017-09-16T09:34:31.802Z,0.67
2017-09-16T09:36:58.181Z,0.50
2017-09-16T09:39:24.594Z,1.50
2017-09-16T09:41:50.956Z,3.80
2017-09-16T09:44:17.236Z,37.00
2017-09-16T09:46:43.724Z,0.50
2017-09-16T09:49:11.540Z,0.50
2017-09-16T09:51:37.842Z,0.73
2017-09-16T09:54:04.215Z,0.50
2017-09-16T09:56:31.268Z,0.40
2017-09-16T09:58:57.608Z,0.47
2017-09-16T10:01:23.861Z,0.67
2017-09-16T10:03:50.151Z,2.00
2017-09-16T10:06:16.437Z,0.40
2017-09-16T10:08:42.758Z,0.40
2017-09-16T10:11:09.142Z,2.40
2017-09-16T10:13:35.836Z,0.60
2017-09-16T10:16:02.093Z,2.10
2017-09-16T10:18:28.741Z,1.27
2017-09-16T10:20:55.085Z,0.67
2017-09-16T10:23:21.361Z,1.13
2017-09-16T10:25:47.763Z,0.40
2017-09-16T10:28:14.018Z,0.60
2017-09-16T10:30:40.505Z,0.50
2017-09-16T10:33:06.916Z,2.77
2017-09-16T10:35:34.907Z,0.40
2017-09-16T10:38:01.173Z,0.93
2017-09-16T10:40:27.435Z,0.90
2017-09-16T10:42:53.822Z,0.50
2017-09-16T10:45:21.005Z,0.77
2017-09-16T10:47:47.493Z,0.57
2017-09-16T10:50:13.829Z,3.03
2017-09-16T10:52:40.157Z,1.17
2017-09-16T10:55:06.380Z,0.80
2017-09-16T10:57:32.893Z,0.50
2017-09-16T11:00:01.193Z,0.53
2017-09-16T11:02:27.692Z,0.30
2017-09-16T11:04:54.097Z,0.60
2017-09-16T11:07:20.599Z,1.23
2017-09-16T11:09:46.903Z,0.50
2017-09-16T11:12:20.834Z,1.03
2017-09-16T11:14:47.272Z,0.50
2017-09-16T11:17:13.713Z,0.30
2017-09-16T11:19:40.810Z,1.13
2017-09-16T11:22:07.197Z,0.73
2017-09-16T11:24:33.805Z,0.80
2017-09-16T11:27:00.242Z,0.70
2017-09-16T11:29:26.670Z,0.60
2017-09-16T11:31:53.971Z,0.60
2017-09-16T11:34:20.511Z,0.43
2017-09-16T11:36:48.629Z,3.90
2017-09-16T11:39:15.177Z,0.30
2017-09-16T11:41:41.680Z,0.43
2017-09-16T11:44:08.082Z,0.70
2017-09-16T11:46:34.558Z,0.40
2017-09-16T11:49:00.932Z,0.53
2017-09-16T11:51:27.253Z,0.57
2017-09-16T11:53:53.584Z,1.70
2017-09-16T11:56:19.888Z,0.60
2017-09-16T11:58:46.235Z,0.77
2017-09-16T12:01:12.627Z,2.23
2017-09-16T12:03:38.922Z,2.50
2017-09-16T12:06:05.360Z,1.60
2017-09-16T12:08:31.664Z,0.60
2017-09-16T12:10:58.002Z,0.50
2017-09-16T12:13:24.452Z,1.00
2017-09-16T12:15:50.835Z,3.93
2017-09-16T12:18:17.161Z,2.53
2017-09-16T12:20:43.580Z,1.50
2017-09-16T12:23:10.105Z,0.73
2017-09-16T12:25:37.295Z,0.67
2017-09-16T12:28:03.683Z,0.50
2017-09-16T12:30:30.925Z,1.13
2017-09-16T12:32:57.232Z,1.60
2017-09-16T12:35:23.613Z,0.63
2017-09-16T12:37:50.044Z,0.40
2017-09-16T12:40:16.426Z,5.03
2017-09-16T12:42:42.793Z,0.40
2017-09-16T12:45:10.143Z,0.50
2017-09-16T12:47:36.485Z,0.80
2017-09-16T12:50:02.843Z,0.40
2017-09-16T12:52:29.283Z,1.70
2017-09-16T12:54:55.557Z,2.10
2017-09-16T12:57:22.087Z,0.67
2017-09-16T12:59:48.422Z,0.90
2017-09-16T13:02:14.773Z,0.63
2017-09-16T13:04:41.022Z,1.50
2017-09-16T13:07:07.319Z,0.50
2017-09-16T13:09:33.598Z,0.53
2017-09-16T13:11:59.957Z,0.60
2017-09-16T13:14:28.578Z,1.23
2017-09-16T13:16:54.951Z,0.60
2017-09-16T13:19:21.345Z,0.57
2017-09-16T13:21:48.671Z,2.10
2017-09-16T13:24:15.617Z,0.60
2017-09-16T13:26:41.892Z,1.43
2017-09-16T13:29:09.072Z,0.60
2017-09-16T13:31:35.485Z,0.50
2017-09-16T13:34:01.738Z,1.47
2017-09-16T13:36:28.018Z,1.03
2017-09-16T13:38:54.233Z,0.57
2017-09-16T13:41:20.576Z,0.50
2017-09-16T13:43:47.026Z,1.20
2017-09-16T13:46:14.159Z,0.83
2017-09-16T13:48:40.456Z,0.57
2017-09-16T13:51:06.881Z,0.80
2017-09-16T13:53:33.274Z,0.70
2017-09-16T13:55:59.780Z,0.47
2017-09-16T13:58:26.143Z,1.47
2017-09-16T14:00:52.540Z,0.57
2017-09-16T14:03:18.942Z,0.70
2017-09-16T14:05:45.261Z,0.50
2017-09-16T14:08:11.575Z,3.20
2017-09-16T14:10:37.919Z,0.80
2017-09-16T14:13:04.215Z,0.60
2017-09-16T14:15:30.633Z,0.50
2017-09-16T14:17:57.130Z,0.73
2017-09-16T14:20:23.363Z,0.70
2017-09-16T14:22:49.703Z,0.47
2017-09-16T14:25:16.066Z,0.50
2017-09-16T14:27:42.414Z,0.50
2017-09-16T14:30:08.742Z,0.50
2017-09-16T14:32:35.799Z,0.67
2017-09-16T14:35:02.228Z,3.13
2017-09-16T14:37:28.502Z,0.67
2017-09-16T14:39:54.768Z,0.63
2017-09-16T14:42:21.092Z,1.60
2017-09-16T14:44:47.460Z,2.93
2017-09-16T14:47:13.841Z,0.60
2017-09-16T14:49:40.905Z,0.73
2017-09-16T14:52:07.291Z,1.77
2017-09-16T14:54:33.809Z,0.90
2017-09-16T14:57:00.915Z,0.67
2017-09-16T14:59:27.196Z,0.53
2017-09-16T15:01:54.268Z,1.27
2017-09-16T15:04:20.742Z,1.70
2017-09-16T15:06:47.087Z,2.03
2017-09-16T15:09:13.344Z,0.57
2017-09-16T15:11:39.656Z,1.13
2017-09-16T15:14:05.973Z,2.73
2017-09-16T15:16:32.323Z,1.17
2017-09-16T15:18:58.672Z,1.43
2017-09-16T15:21:25.736Z,1.00
2017-09-16T15:23:52.138Z,0.80
2017-09-16T15:26:18.732Z,0.70
2017-09-16T15:28:45.194Z,0.67
2017-09-16T15:31:11.514Z,0.60
2017-09-16T15:33:38.230Z,2.63
2017-09-16T15:36:04.617Z,9.80
2017-09-16T15:38:30.891Z,3.00
2017-09-16T15:40:57.180Z,5.57
2017-09-16T15:43:23.527Z,2.33
2017-09-16T15:45:51.165Z,1.17
2017-09-16T15:48:17.529Z,1.17
2017-09-16T15:50:43.933Z,1.53
2017-09-16T15:53:11.097Z,1.07
2017-09-16T15:55:38.319Z,0.80
2017-09-16T15:58:04.586Z,0.90
2017-09-16T16:00:30.955Z,1.20
2017-09-16T16:02:57.471Z,1.17
2017-09-16T16:05:23.762Z,1.07
2017-09-16T16:07:50.138Z,0.67
2017-09-16T16:10:16.648Z,2.20
2017-09-16T16:12:42.904Z,0.73
2017-09-16T16:15:09.559Z,3.30
2017-09-16T16:17:35.972Z,0.50
2017-09-16T16:20:02.286Z,0.70
2017-09-16T16:22:28.624Z,7.43
2017-09-16T16:24:54.993Z,1.03
2017-09-16T16:27:21.449Z,1.50
2017-09-16T16:29:47.884Z,0.70
2017-09-16T16:32:14.433Z,1.00
2017-09-16T16:34:41.691Z,1.07
2017-09-16T16:37:08.038Z,0.60
2017-09-16T16:39:34.454Z,0.73
2017-09-16T16:42:00.944Z,1.17
2017-09-16T16:44:27.419Z,0.83
2017-09-16T16:46:54.707Z,1.77
2017-09-16T16:49:21.904Z,0.80
2017-09-16T16:51:48.281Z,0.80
2017-09-16T16:54:14.842Z,2.67
2017-09-16T16:56:41.387Z,2.73
2017-09-16T16:59:07.715Z,3.10
2017-09-16T17:01:34.099Z,3.80
2017-09-16T17:04:00.541Z,5.13
2017-09-16T17:06:26.995Z,1.60
2017-09-16T17:08:53.372Z,2.03
2017-09-16T17:11:19.739Z,0.90
2017-09-16T17:13:46.171Z,1.07
2017-09-16T17:16:13.803Z,3.13
2017-09-16T17:18:40.967Z,15.40
2017-09-16T17:21:07.311Z,21.47
2017-09-16T17:23:34.501Z,21.83
2017-09-16T17:26:00.954Z,5.17
2017-09-16T17:28:27.252Z,15.33
2017-09-16T17:30:53.642Z,23.33
2017-09-16T17:33:20.054Z,25.00
2017-09-16T17:35:46.504Z,13.97
2017-09-16T17:38:12.948Z,19.70
2017-09-16T17:40:40.116Z,19.57
2017-09-16T17:43:07.194Z,16.47
2017-09-16T17:45:33.632Z,20.40
2017-09-16T17:48:00.137Z,13.20
2017-09-16T17:50:27.391Z,12.33
2017-09-16T17:52:53.873Z,32.53
2017-09-16T17:55:20.233Z,55.50
2017-09-16T17:57:47.185Z,49.27
2017-09-16T18:00:13.682Z,38.43
2017-09-16T18:02:40.138Z,22.30
2017-09-16T18:05:13.988Z,59.17
2017-09-16T18:07:40.425Z,14.27
2017-09-16T18:10:06.897Z,60.37
2017-09-16T18:12:33.439Z,31.00
2017-09-16T18:14:59.916Z,22.77
2017-09-16T18:17:26.538Z,11.63
2017-09-16T18:19:52.844Z,27.00
2017-09-16T18:22:19.120Z,43.73
2017-09-16T18:24:46.167Z,88.27
2017-09-16T18:27:12.483Z,74.93
2017-09-16T18:29:38.762Z,43.10
2017-09-16T18:32:05.276Z,16.13
2017-09-16T18:34:31.935Z,28.67
2017-09-16T18:36:58.370Z,73.70
2017-09-16T18:39:25.700Z,28.17
2017-09-16T18:41:52.027Z,31.50
2017-09-16T18:44:18.440Z,34.53
2017-09-16T18:46:45.742Z,39.73
2017-09-16T18:49:12.448Z,36.83
2017-09-16T18:51:38.968Z,26.10
2017-09-16T18:54:05.288Z,18.33
2017-09-16T18:56:31.703Z,26.73
2017-09-16T18:58:59.125Z,24.87
2017-09-16T19:01:26.340Z,30.33
2017-09-16T19:03:52.686Z,15.97
2017-09-16T19:06:19.059Z,21.57
2017-09-16T19:08:45.480Z,19.70
2017-09-16T19:11:12.190Z,22.20
2017-09-16T19:13:38.554Z,19.83
2017-09-16T19:16:05.138Z,16.83
2017-09-16T19:18:32.379Z,24.33
2017-09-16T19:20:59.027Z,20.60
2017-09-16T19:23:25.387Z,22.10
2017-09-16T19:25:53.519Z,31.60
2017-09-16T19:28:19.950Z,34.73
2017-09-16T19:30:46.263Z,92.27
2017-09-16T19:33:12.665Z,64.67
2017-09-16T19:35:39.103Z,57.97
2017-09-16T19:38:05.975Z,60.47
2017-09-16T19:40:32.229Z,40.80
2017-09-16T19:42:58.563Z,32.37
2017-09-16T19:45:24.899Z,54.37
2017-09-16T19:47:51.290Z,42.40
2017-09-16T19:50:17.818Z,48.17
2017-09-16T19:52:44.298Z,47.20
2017-09-16T19:55:10.670Z,42.40
2017-09-16T19:57:37.185Z,48.17
2017-09-16T20:00:03.513Z,55.43
2017-09-16T20:02:30.027Z,52.17
2017-09-16T20:04:56.467Z,79.53
2017-09-16T20:07:23.021Z,97.27
2017-09-16T20:09:50.172Z,78.47
2017-09-16T20:12:16.770Z,85.33
2017-09-16T20:14:43.403Z,79.60
2017-09-16T20:17:09.770Z,88.47
2017-09-16T20:19:36.217Z,66.00
2017-09-16T20:22:03.341Z,67.10
2017-09-16T20:24:29.835Z,61.60
2017-09-16T20:26:56.973Z,47.73
2017-09-16T20:29:24.304Z,49.83
2017-09-16T20:31:51.345Z,36.50
2017-09-16T20:34:17.726Z,49.47
2017-09-16T20:36:43.999Z,30.03
2017-09-16T20:39:10.286Z,37.10
2017-09-16T20:41:36.658Z,32.37
2017-09-16T20:44:02.863Z,31.67
2017-09-16T20:46:29.163Z,31.77
2017-09-16T20:48:56.238Z,26.77
2017-09-16T20:51:22.632Z,28.60
2017-09-16T20:53:49.025Z,30.67
2017-09-16T20:56:15.387Z,29.90
2017-09-16T20:58:41.710Z,33.93
2017-09-16T21:01:08.160Z,31.00
2017-09-16T21:03:34.619Z,33.23
2017-09-16T21:06:01.000Z,34.87
2017-09-16T21:08:27.292Z,46.53
2017-09-16T21:10:53.663Z,35.20
2017-09-16T21:13:19.971Z,35.47
2017-09-16T21:15:46.250Z,29.43
2017-09-16T21:18:12.683Z,26.87
2017-09-16T21:20:38.868Z,43.40
2017-09-16T21:23:05.148Z,41.87
2017-09-16T21:25:31.560Z,39.33
2017-09-16T21:27:57.871Z,47.93
2017-09-16T21:30:24.589Z,42.67
2017-09-16T21:32:51.937Z,48.50
2017-09-16T21:35:18.199Z,36.83
2017-09-16T21:37:44.564Z,35.00
2017-09-16T21:40:10.904Z,29.97
2017-09-16T21:42:38.104Z,38.63
2017-09-16T21:45:04.482Z,24.20
2017-09-16T21:47:31.507Z,28.00
2017-09-16T21:49:57.909Z,27.73
2017-09-16T21:52:24.361Z,27.33
2017-09-16T21:54:50.932Z,32.17
2017-09-16T21:57:17.816Z,27.00
2017-09-16T21:59:44.148Z,20.03
2017-09-16T22:02:10.527Z,31.33
2017-09-16T22:04:37.672Z,37.93
2017-09-16T22:07:04.257Z,27.97
2017-09-16T22:09:30.557Z,29.57
2017-09-16T22:11:57.110Z,35.47
2017-09-16T22:14:24.167Z,28.07
2017-09-16T22:16:50.549Z,28.07
2017-09-16T22:19:17.055Z,25.40
2017-09-16T22:21:43.457Z,19.27
2017-09-16T22:24:09.835Z,20.90
2017-09-16T22:26:36.382Z,32.07
2017-09-16T22:29:02.773Z,24.30
2017-09-16T22:31:29.104Z,27.00
2017-09-16T22:33:55.587Z,25.13
2017-09-16T22:36:21.944Z,23.80
2017-09-16T22:38:48.307Z,33.90
2017-09-16T22:41:14.702Z,32.63
2017-09-16T22:43:41.115Z,36.00
2017-09-16T22:46:07.434Z,32.00
2017-09-16T22:48:33.625Z,21.50
2017-09-16T22:51:00.596Z,23.70
2017-09-16T22:53:27.459Z,23.67
2017-09-16T22:55:53.766Z,21.67
2017-09-16T22:58:20.143Z,21.77
2017-09-16T23:00:46.509Z,22.43
2017-09-16T23:03:13.549Z,22.70
2017-09-16T23:05:39.900Z,21.63
2017-09-16T23:08:06.258Z,21.53
2017-09-16T23:10:32.574Z,24.37
2017-09-16T23:12:58.929Z,30.20
2017-09-16T23:15:25.192Z,25.47
2017-09-16T23:17:51.533Z,21.13
2017-09-16T23:20:17.768Z,29.10
2017-09-16T23:22:44.025Z,14.60
2017-09-16T23:25:10.368Z,13.23
2017-09-16T23:27:36.659Z,19.40
2017-09-16T23:30:02.940Z,16.40
2017-09-16T23:32:29.173Z,12.87
2017-09-16T23:34:55.648Z,16.17
2017-09-16T23:37:22.060Z,13.63
2017-09-16T23:39:48.312Z,16.87
2017-09-16T23:42:14.584Z,13.30
2017-09-16T23:44:40.908Z,12.90
2017-09-16T23:47:07.190Z,15.90
2017-09-16T23:49:33.552Z,16.53
2017-09-16T23:51:59.829Z,14.40
2017-09-16T23:54:26.199Z,18.90
2017-09-16T23:56:52.560Z,17.80
2017-09-16T23:59:18.889Z,17.40
